CheckWX is a tool to help pilots better visualize weather data.  It is not intended as a substitute for an official pre-flight weather briefing.

06:37:12 UTC

KAWM METAR
West Memphis Municipal Airport
West Memphis, Arkansas, USA
Current

44 mins ago

KAWM 120553Z AUTO 20004KT 10SM CLR 28/26 A2988 RMK AO2 SLP112 T02830256 10328 20283 403390222 53006 $
Observed
Jul-12 @ 05:53 UTC
Wind
  • 200° at 4 KTS
Visibility
10 SM
Flight Rules
VFR
Cloud Levels
  • Clear skies
Dewpoint
26°C / 79°F
Humidity
89%
Altimeter
29.88" Hg
Pressure
1011.82 hPa
Previous

2 hours ago

KAWM 120453Z AUTO 20005KT 10SM CLR 28/26 A2986 RMK AO2 SLP105 T02830256 $
Observed
Jul-12 @ 04:53 UTC
Wind
  • 200° at 5 KTS
Visibility
10 SM
Flight Rules
VFR
Cloud Levels
  • Clear skies
Temperature
28°C / 82°F
Dewpoint
26°C / 79°F
Humidity
89%
Altimeter
29.86" Hg
Pressure
1011.22 hPa
Previous

3 hours ago

KAWM 120353Z AUTO 20004KT 10SM CLR 28/25 A2987 RMK AO2 SLP108 T02830250 $
Observed
Jul-12 @ 03:53 UTC
Wind
  • 200° at 4 KTS
Visibility
10 SM
Flight Rules
VFR
Cloud Levels
  • Clear skies
Temperature
28°C / 82°F
Dewpoint
25°C / 77°F
Humidity
84%
Altimeter
29.87" Hg
Pressure
1011.52 hPa